Time;durP1;ratioP1;P1;durP2;ratioP2;P2;SDS_P1;SDS_P2;PMS_P1;PMS_P2;Temp;Humidity;BMP_temperature;BMP_pressure;BME280_temperature;BME280_humidity;BME280_pressure;Samples;Min_cycle;Max_cycle;Signal;HPM_P1;HPM_P2
2022/04/08 00:00:44;;;;;;;;;1.00;0.00;;;;;10.24;52.75;99854.84;4975030;28;45395;-58
2022/04/08 00:03:09;;;;;;;;;1.00;0.00;;;;;10.00;52.38;99815.63;4972623;28;45660;-59
2022/04/08 00:05:35;;;;;;;;;0.50;0.00;;;;;10.13;51.96;99842.22;4973269;28;47607;-59
2022/04/08 00:08:00;;;;;;;;;0.00;0.00;;;;;10.17;53.18;99851.72;4974595;28;45426;-59
2022/04/08 00:10:26;;;;;;;;;0.25;0.00;;;;;10.20;53.30;99837.38;4973162;28;45391;-65
2022/04/08 00:12:51;;;;;;;;;1.00;0.00;;;;;10.18;52.66;99840.13;4974933;28;45580;-59
2022/04/08 00:15:16;;;;;;;;;0.00;0.00;;;;;10.14;53.09;99837.75;4988337;28;45688;-58
2022/04/08 00:17:42;;;;;;;;;0.00;0.00;;;;;10.12;52.78;99837.00;4983555;28;45418;-59
2022/04/08 00:20:08;;;;;;;;;2.00;0.00;;;;;10.15;52.48;99842.13;4973085;28;45683;-59
2022/04/08 00:22:39;;;;;;;;;1.00;0.50;;;;;10.15;52.97;99836.81;5023488;28;45552;-59
2022/04/08 00:25:05;;;;;;;;;2.00;0.00;;;;;10.17;52.48;99826.94;4972843;28;46932;-59
2022/04/08 00:27:30;;;;;;;;;0.50;0.50;;;;;10.16;53.29;99835.88;4971530;28;45414;-59
2022/04/08 00:29:56;;;;;;;;;0.00;0.00;;;;;10.16;52.89;99825.25;4961546;28;45584;-58
2022/04/08 00:32:21;;;;;;;;;1.00;1.00;;;;;10.20;53.29;99826.75;5012404;28;45425;-59
2022/04/08 00:34:46;;;;;;;;;0.00;0.00;;;;;10.19;52.76;99817.91;5020146;27;46195;-59
2022/04/08 00:37:13;;;;;;;;;0.00;0.00;;;;;10.27;52.78;99826.25;4968621;28;45381;-64
2022/04/08 00:39:38;;;;;;;;;1.75;0.25;;;;;10.26;53.08;99832.50;4968752;28;45350;-62
2022/04/08 00:42:06;;;;;;;;;0.00;0.00;;;;;10.28;53.71;99825.28;4974637;28;45272;-59
2022/04/08 00:44:32;;;;;;;;;0.00;0.00;;;;;10.29;54.09;99826.16;4991426;28;46257;-59
2022/04/08 00:46:57;;;;;;;;;0.00;0.00;;;;;10.33;53.82;99825.00;4984967;28;45324;-59
2022/04/08 00:49:22;;;;;;;;;1.75;0.00;;;;;10.34;54.11;99818.72;4983556;27;45551;-61
2022/04/08 00:51:49;;;;;;;;;1.00;0.00;;;;;10.33;53.64;99825.00;4974920;28;45439;-62
2022/04/08 00:54:15;;;;;;;;;0.00;0.00;;;;;10.26;54.01;99795.31;4978215;27;45437;-58
2022/04/08 00:56:41;;;;;;;;;0.25;0.25;;;;;10.29;53.55;99800.44;4972989;28;45398;-59
2022/04/08 00:59:07;;;;;;;;;0.00;0.00;;;;;10.21;53.80;99804.53;4998703;27;45400;-61
2022/04/08 01:01:32;;;;;;;;;0.00;0.00;;;;;10.21;54.60;99793.91;4972195;28;45555;-58
2022/04/08 01:03:58;;;;;;;;;0.00;0.00;;;;;10.23;54.18;99821.25;4957801;27;45383;-62
2022/04/08 01:06:25;;;;;;;;;0.00;0.00;;;;;10.23;53.68;99805.31;4985312;28;45326;-58
2022/04/08 01:08:52;;;;;;;;;0.00;0.00;;;;;10.23;54.18;99806.16;4963340;28;45352;-59
2022/04/08 01:11:17;;;;;;;;;1.50;0.00;;;;;10.24;53.84;99801.69;4995278;27;45613;-58
2022/04/08 01:13:43;;;;;;;;;1.75;0.00;;;;;10.17;53.75;99795.06;4979453;28;47840;-58
2022/04/08 01:16:08;;;;;;;;;0.00;0.00;;;;;10.17;55.19;99795.91;4956906;28;45396;-58
2022/04/08 01:18:34;;;;;;;;;1.50;0.00;;;;;10.25;54.81;99804.25;4967069;28;45439;-59
2022/04/08 01:21:07;;;;;;;;;0.00;0.00;;;;;10.22;55.13;99790.31;5000976;28;45601;-61
2022/04/08 01:23:34;;;;;;;;;0.50;0.00;;;;;10.29;54.06;99794.28;5077926;27;47864;-58
2022/04/08 01:26:06;;;;;;;;;1.00;0.00;;;;;10.27;54.44;99790.84;4980870;27;45505;-59
2022/04/08 01:28:33;;;;;;;;;3.00;0.00;;;;;10.25;54.61;99782.13;4975966;27;45373;-60
2022/04/08 01:30:58;;;;;;;;;2.75;2.00;;;;;10.13;54.05;99769.63;4976766;28;45472;-59
2022/04/08 01:33:24;;;;;;;;;0.00;0.00;;;;;10.25;54.08;99779.47;4960160;28;46137;-59
2022/04/08 01:35:49;;;;;;;;;0.00;0.00;;;;;10.24;53.73;99775.13;4961856;28;45331;-60
2022/04/08 01:38:15;;;;;;;;;1.50;0.00;;;;;10.18;54.28;99775.50;4964050;28;45402;-59
2022/04/08 01:40:40;;;;;;;;;2.25;0.00;;;;;10.22;54.48;99766.41;5012018;28;45491;-59
2022/04/08 01:43:05;;;;;;;;;0.00;0.00;;;;;10.19;54.25;99766.59;5006601;27;46169;-60
2022/04/08 01:45:31;;;;;;;;;1.50;0.00;;;;;10.21;54.02;99775.28;4973543;28;45372;-60
2022/04/08 01:47:56;;;;;;;;;1.00;0.00;;;;;10.18;53.91;99780.81;5037484;27;45536;-61
2022/04/08 01:50:22;;;;;;;;;1.00;0.00;;;;;10.09;54.42;99760.19;4967217;28;45631;-59
2022/04/08 01:52:48;;;;;;;;;0.50;0.25;;;;;10.16;54.55;99766.78;4955887;28;46134;-59
2022/04/08 01:55:14;;;;;;;;;0.00;0.00;;;;;10.14;54.88;99761.56;4967430;28;45589;-58
2022/04/08 01:57:41;;;;;;;;;0.00;0.00;;;;;10.23;54.46;99773.41;4970787;28;45434;-57
2022/04/08 02:00:08;;;;;;;;;0.00;0.00;;;;;10.20;54.65;99762.97;4970098;28;45481;-59
2022/04/08 02:02:35;;;;;;;;;0.75;0.00;;;;;10.21;54.49;99765.56;4973720;28;46439;-59
2022/04/08 02:05:01;;;;;;;;;1.50;0.00;;;;;10.22;54.38;99763.75;4994588;28;45462;-60
2022/04/08 02:07:27;;;;;;;;;0.25;0.00;;;;;10.19;54.63;99755.94;5018256;27;45506;-59
2022/04/08 02:09:52;;;;;;;;;0.50;0.00;;;;;10.21;54.83;99764.66;4984121;28;45631;-59
2022/04/08 02:12:18;;;;;;;;;0.00;0.00;;;;;10.21;55.20;99770.88;4972395;28;45862;-60
2022/04/08 02:14:43;;;;;;;;;0.00;0.00;;;;;10.22;55.55;99771.72;5046894;27;45370;-59
2022/04/08 02:17:09;;;;;;;;;2.75;0.25;;;;;10.24;54.91;99769.81;5027400;27;45698;-62
2022/04/08 02:19:34;;;;;;;;;1.75;1.00;;;;;10.19;54.84;99761.25;4975784;28;45436;-59
2022/04/08 02:22:00;;;;;;;;;1.00;1.00;;;;;10.20;55.08;99768.28;5007096;28;46245;-60
2022/04/08 02:24:26;;;;;;;;;0.00;0.00;;;;;10.19;54.93;99755.94;5027255;27;45400;-60
2022/04/08 02:26:52;;;;;;;;;1.25;0.00;;;;;10.21;54.37;99757.56;4955372;28;45416;-59
2022/04/08 02:29:18;;;;;;;;;1.00;0.00;;;;;10.08;54.56;99738.06;4972641;28;45636;-58
2022/04/08 02:31:43;;;;;;;;;0.00;0.00;;;;;10.16;54.83;99748.19;4966562;28;46491;-59
2022/04/08 02:34:08;;;;;;;;;0.00;0.00;;;;;10.21;55.50;99746.94;4956869;28;45481;-59
2022/04/08 02:36:34;;;;;;;;;2.00;0.25;;;;;10.24;55.07;99745.88;4967332;28;45392;-59
2022/04/08 02:38:59;;;;;;;;;0.25;0.25;;;;;10.23;55.07;99750.34;5004286;28;45414;-58
2022/04/08 02:41:25;;;;;;;;;1.00;0.00;;;;;10.25;54.57;99753.75;5077198;28;45973;-58
2022/04/08 02:43:50;;;;;;;;;0.00;0.00;;;;;10.20;54.71;99744.38;5009440;27;45450;-58
2022/04/08 02:46:16;;;;;;;;;0.75;0.00;;;;;10.12;54.43;99728.94;5003562;28;45463;-59
2022/04/08 02:48:41;;;;;;;;;0.00;0.00;;;;;10.24;54.68;99738.75;4995208;27;45398;-58
2022/04/08 02:51:07;;;;;;;;;0.00;0.00;;;;;10.22;55.59;99735.38;4954517;28;47170;-58
2022/04/08 02:53:32;;;;;;;;;1.00;0.75;;;;;10.26;55.65;99736.00;4955649;28;45427;-59
2022/04/08 02:55:57;;;;;;;;;0.00;0.00;;;;;10.26;55.12;99728.03;4969237;28;45568;-60
2022/04/08 02:58:23;;;;;;;;;0.00;0.00;;;;;10.26;55.57;99725.38;4963255;28;45411;-59
2022/04/08 03:00:48;;;;;;;;;1.25;0.00;;;;;10.25;55.85;99724.50;4956970;28;48207;-59
2022/04/08 03:03:14;;;;;;;;;0.50;0.00;;;;;10.25;55.45;99723.66;4955624;28;45335;-59
2022/04/08 03:05:39;;;;;;;;;0.00;0.00;;;;;10.26;55.66;99715.59;4962956;28;45438;-58
2022/04/08 03:08:05;;;;;;;;;0.00;0.00;;;;;10.23;55.88;99712.28;4959918;28;45340;-59
2022/04/08 03:10:31;;;;;;;;;0.00;0.00;;;;;10.28;55.27;99724.28;4975993;28;46014;-59
2022/04/08 03:12:56;;;;;;;;;1.00;1.00;;;;;10.25;55.75;99716.53;4993703;28;45299;-60
2022/04/08 03:15:22;;;;;;;;;0.00;0.00;;;;;10.24;55.61;99706.88;5080019;27;45479;-59
2022/04/08 03:17:51;;;;;;;;;0.00;0.00;;;;;10.17;56.12;99702.91;4969469;28;46008;-58
2022/04/08 03:20:16;;;;;;;;;0.00;0.00;;;;;10.20;55.67;99709.81;4957250;28;46654;-59
2022/04/08 03:22:42;;;;;;;;;5.00;0.00;;;;;10.19;55.85;99702.81;4975271;28;45394;-58
2022/04/08 03:25:07;;;;;;;;;3.00;0.00;;;;;10.25;56.08;99705.06;5017499;27;45349;-61
2022/04/08 03:27:33;;;;;;;;;1.00;1.00;;;;;10.25;56.01;99699.75;5056884;27;45348;-58
2022/04/08 03:29:58;;;;;;;;;0.00;0.00;;;;;10.24;56.33;99700.72;4961820;28;46291;-59
2022/04/08 03:32:23;;;;;;;;;2.00;1.00;;;;;10.25;56.27;99697.09;4967175;28;45270;-58
2022/04/08 03:34:57;;;;;;;;;0.00;0.00;;;;;10.21;56.97;99699.13;4975016;28;45263;-59
2022/04/08 03:37:23;;;;;;;;;0.00;0.00;;;;;10.23;56.65;99693.69;4983158;28;45452;-59
2022/04/08 03:39:49;;;;;;;;;0.00;0.00;;;;;10.19;56.54;99690.38;4972285;27;45922;-58
2022/04/08 03:42:14;;;;;;;;;2.00;0.00;;;;;10.23;57.33;99699.00;4974569;28;45421;-58
2022/04/08 03:44:40;;;;;;;;;0.75;0.00;;;;;10.20;57.91;99693.88;4964510;28;45504;-60
2022/04/08 03:47:05;;;;;;;;;0.25;0.25;;;;;10.19;59.10;99692.19;4975070;28;45536;-60
2022/04/08 03:49:35;;;;;;;;;2.00;0.50;;;;;10.12;59.29;99664.31;4985660;28;45416;-59
2022/04/08 03:52:04;;;;;;;;;0.00;0.00;;;;;10.18;59.11;99674.53;4972799;27;45489;-59
2022/04/08 03:54:30;;;;;;;;;0.00;0.00;;;;;10.17;59.43;99670.19;4957596;28;45289;-59
2022/04/08 03:56:55;;;;;;;;;2.50;0.00;;;;;10.05;60.28;99643.50;4954301;28;45478;-59
2022/04/08 03:59:22;;;;;;;;;0.00;0.00;;;;;10.07;61.32;99642.53;4970116;28;45443;-59
2022/04/08 04:01:49;;;;;;;;;3.25;0.00;;;;;10.08;61.27;99647.75;4969047;28;45451;-58
2022/04/08 04:04:15;;;;;;;;;0.00;0.00;;;;;10.05;61.49;99645.31;4957047;28;45493;-59
2022/04/08 04:06:40;;;;;;;;;2.00;1.00;;;;;9.96;61.61;99625.53;4967742;28;45816;-59
2022/04/08 04:09:06;;;;;;;;;2.25;0.00;;;;;9.88;62.41;99625.19;4956833;28;48378;-59
2022/04/08 04:11:32;;;;;;;;;0.00;0.00;;;;;9.94;62.00;99634.56;4964323;28;45500;-60
2022/04/08 04:13:58;;;;;;;;;4.25;0.00;;;;;9.93;62.73;99628.41;5040505;27;45428;-59
2022/04/08 04:16:23;;;;;;;;;0.75;0.00;;;;;9.82;62.42;99615.00;5044351;27;45496;-59
2022/04/08 04:18:49;;;;;;;;;1.00;1.00;;;;;9.73;63.09;99599.69;4956581;28;47235;-58
2022/04/08 04:21:15;;;;;;;;;2.00;0.25;;;;;9.84;63.46;99609.59;4954898;28;45240;-59
2022/04/08 04:23:41;;;;;;;;;1.00;0.00;;;;;9.72;63.66;99587.38;4955787;28;45397;-59
2022/04/08 04:26:06;;;;;;;;;0.75;0.00;;;;;9.86;63.40;99605.88;4969298;28;45640;-59
2022/04/08 04:28:32;;;;;;;;;2.00;0.25;;;;;9.84;63.07;99602.47;4969459;28;45993;-58
2022/04/08 04:31:03;;;;;;;;;1.00;0.00;;;;;9.82;63.14;99598.22;4975963;27;45236;-59
2022/04/08 04:33:29;;;;;;;;;1.50;0.50;;;;;9.80;63.24;99587.72;4968329;28;45434;-59
2022/04/08 04:35:55;;;;;;;;;2.00;0.00;;;;;9.68;64.76;99569.97;4962273;28;45177;-58
2022/04/08 04:38:22;;;;;;;;;2.00;0.25;;;;;9.71;64.10;99573.25;4955988;28;46399;-62
2022/04/08 04:40:47;;;;;;;;;1.00;0.00;;;;;9.81;64.32;99570.81;4962558;28;45283;-58
2022/04/08 04:43:13;;;;;;;;;0.00;0.00;;;;;9.83;64.44;99579.53;4972187;28;45449;-59
2022/04/08 04:45:39;;;;;;;;;1.00;1.00;;;;;9.75;65.07;99561.47;4974551;28;45565;-58
2022/04/08 04:48:12;;;;;;;;;0.00;0.00;;;;;9.73;63.52;99547.44;4963505;28;46326;-59
2022/04/08 04:50:38;;;;;;;;;2.00;0.00;;;;;9.75;64.46;99544.69;4952751;28;45372;-59
2022/04/08 04:53:04;;;;;;;;;0.00;0.00;;;;;9.78;64.89;99546.31;5014370;28;45342;-59
2022/04/08 04:55:29;;;;;;;;;2.00;0.00;;;;;9.74;64.64;99529.72;4974115;28;45336;-58
2022/04/08 04:57:56;;;;;;;;;0.00;0.00;;;;;9.79;65.48;99524.94;4972118;28;46211;-58
2022/04/08 05:00:21;;;;;;;;;0.50;0.00;;;;;9.79;65.41;99524.94;4972720;28;45374;-58
2022/04/08 05:02:47;;;;;;;;;5.25;0.00;;;;;9.73;65.53;99510.28;4966486;28;45490;-58
2022/04/08 05:05:12;;;;;;;;;0.50;0.00;;;;;9.68;65.35;99507.09;5006774;28;45710;-58
2022/04/08 05:07:39;;;;;;;;;1.00;0.00;;;;;9.68;65.36;99500.94;4969742;28;45995;-60
2022/04/08 05:10:06;;;;;;;;;0.00;0.00;;;;;9.64;65.83;99491.50;4962910;28;45299;-61
2022/04/08 05:12:31;;;;;;;;;2.00;0.50;;;;;9.68;65.90;99490.31;4975719;28;45506;-57
2022/04/08 05:14:57;;;;;;;;;0.00;0.00;;;;;9.70;65.80;99483.09;4983093;28;45651;-58
2022/04/08 05:17:22;;;;;;;;;4.50;0.00;;;;;9.65;65.63;99474.63;4966416;28;45958;-59
2022/04/08 05:19:48;;;;;;;;;0.75;0.75;;;;;9.63;65.53;99471.19;4999331;28;45377;-60
2022/04/08 05:22:13;;;;;;;;;3.00;0.00;;;;;9.59;65.50;99459.94;4999686;28;45346;-58
2022/04/08 05:24:39;;;;;;;;;1.00;1.00;;;;;9.62;65.94;99470.34;4973390;28;45310;-59
2022/04/08 05:27:06;;;;;;;;;2.75;0.00;;;;;9.59;66.14;99454.66;4971680;28;47505;-59
2022/04/08 05:29:31;;;;;;;;;0.00;0.00;;;;;9.52;65.57;99445.44;4957796;28;45583;-57
2022/04/08 05:31:57;;;;;;;;;0.00;0.00;;;;;9.61;65.73;99446.56;5018883;28;45322;-55
2022/04/08 05:34:22;;;;;;;;;1.00;0.00;;;;;9.72;64.79;99450.16;4964337;28;45370;-60
2022/04/08 05:36:48;;;;;;;;;0.75;0.75;;;;;9.73;63.32;99440.41;4970194;28;45522;-59
2022/04/08 05:39:13;;;;;;;;;1.00;1.00;;;;;9.66;63.50;99429.38;4971252;28;45421;-59
2022/04/08 05:41:38;;;;;;;;;0.00;0.00;;;;;9.76;64.62;99434.88;4987094;28;45227;-61
2022/04/08 05:44:05;;;;;;;;;5.00;0.00;;;;;9.78;62.56;99432.97;4981508;28;45608;-61
2022/04/08 05:46:30;;;;;;;;;0.00;0.00;;;;;9.76;61.29;99424.25;4988442;28;45430;-60
2022/04/08 05:48:56;;;;;;;;;0.00;0.00;;;;;9.77;61.40;99411.84;4972784;28;45561;-59
2022/04/08 05:51:21;;;;;;;;;0.00;0.00;;;;;9.83;61.27;99419.34;4972781;28;45473;-61
2022/04/08 05:53:47;;;;;;;;;0.50;0.50;;;;;9.83;61.24;99411.38;4972563;28;45282;-60
2022/04/08 05:56:12;;;;;;;;;0.00;0.00;;;;;9.84;60.79;99408.63;4975012;28;45441;-60
2022/04/08 05:58:40;;;;;;;;;0.00;0.00;;;;;9.83;62.00;99398.13;4978030;28;45294;-59
2022/04/08 06:01:06;;;;;;;;;2.00;0.00;;;;;9.83;61.55;99403.44;4978272;28;45514;-58
2022/04/08 06:03:32;;;;;;;;;2.00;0.00;;;;;9.77;60.13;99386.13;4976392;28;45318;-59
2022/04/08 06:05:57;;;;;;;;;0.50;0.00;;;;;9.74;61.12;99383.69;4974738;28;46714;-58
2022/04/08 06:08:23;;;;;;;;;1.00;0.00;;;;;9.66;61.35;99365.66;4992412;28;45403;-58
2022/04/08 06:10:48;;;;;;;;;0.00;0.00;;;;;9.78;61.08;99379.88;4976687;28;45594;-57
2022/04/08 06:13:14;;;;;;;;;1.00;0.00;;;;;9.74;60.13;99368.59;5014172;28;45545;-57
2022/04/08 06:15:39;;;;;;;;;0.00;0.00;;;;;9.67;61.50;99367.38;5079924;27;45258;-59
2022/04/08 06:18:05;;;;;;;;;0.00;0.00;;;;;9.61;62.82;99340.41;5051615;27;45237;-58
2022/04/08 06:20:31;;;;;;;;;0.00;0.00;;;;;9.72;62.57;99351.09;4976383;28;45333;-56
2022/04/08 06:22:57;;;;;;;;;1.00;1.00;;;;;9.61;61.09;99348.34;4974720;28;45360;-59
2022/04/08 06:25:23;;;;;;;;;1.00;0.00;;;;;9.44;62.48;99326.53;4973539;28;47745;-58
2022/04/08 06:28:07;;;;;;;;;1.00;1.00;;;;;9.53;61.51;99334.81;4987217;28;45563;-59
2022/04/08 06:30:39;;;;;;;;;1.00;1.00;;;;;9.49;61.79;99330.66;5003678;27;45236;-58
2022/04/08 06:33:07;;;;;;;;;0.50;0.50;;;;;9.37;61.71;99306.69;4979347;28;45604;-59
2022/04/08 06:35:33;;;;;;;;;2.75;2.75;;;;;9.40;64.34;99311.81;4978122;28;45475;-58
2022/04/08 06:38:01;;;;;;;;;1.00;1.00;;;;;9.44;64.06;99320.38;4978309;28;45509;-58
2022/04/08 06:40:26;;;;;;;;;2.75;2.00;;;;;9.43;65.78;99314.22;4985284;27;45420;-58
2022/04/08 06:42:55;;;;;;;;;2.00;1.00;;;;;9.36;65.40;99305.00;4977401;28;45407;-58
2022/04/08 06:45:22;;;;;;;;;1.50;1.50;;;;;9.39;65.53;99318.06;4967571;28;45735;-59
2022/04/08 06:47:48;;;;;;;;;2.75;1.50;;;;;9.27;64.38;99316.28;4960352;28;45534;-58
2022/04/08 06:50:15;;;;;;;;;1.25;1.00;;;;;9.20;65.77;99314.16;4971915;28;46955;-57
2022/04/08 06:52:40;;;;;;;;;1.00;1.00;;;;;9.17;65.52;99315.22;4966818;28;45434;-58
2022/04/08 06:55:07;;;;;;;;;1.25;1.25;;;;;9.13;67.09;99314.59;4973530;27;45960;-59
2022/04/08 06:57:32;;;;;;;;;4.50;0.50;;;;;9.08;67.26;99305.25;4975199;28;45412;-59
2022/04/08 06:59:58;;;;;;;;;4.50;2.75;;;;;9.14;68.01;99315.47;4975430;28;45425;-58
2022/04/08 07:02:23;;;;;;;;;0.25;0.25;;;;;9.10;70.63;99312.16;4968205;28;45343;-59
2022/04/08 07:04:48;;;;;;;;;0.50;0.50;;;;;9.08;71.67;99305.25;4972931;28;45597;-59
2022/04/08 07:07:14;;;;;;;;;1.00;1.00;;;;;9.01;71.52;99294.25;4970680;28;45336;-59
2022/04/08 07:09:39;;;;;;;;;1.00;1.00;;;;;8.94;70.70;99303.56;4975513;28;45509;-58
2022/04/08 07:12:05;;;;;;;;;11.00;8.00;;;;;9.04;70.12;99309.09;4975906;27;45226;-58
2022/04/08 07:14:30;;;;;;;;;1.75;1.00;;;;;9.05;70.37;99308.97;5010651;28;45427;-57
2022/04/08 07:16:56;;;;;;;;;1.25;1.00;;;;;9.00;69.98;99299.66;4970804;28;45288;-59
2022/04/08 07:19:21;;;;;;;;;2.00;2.00;;;;;8.97;70.69;99287.44;4956631;28;45357;-59
2022/04/08 07:21:49;;;;;;;;;1.50;1.50;;;;;8.95;70.08;99291.16;4975430;28;45650;-59
2022/04/08 07:24:14;;;;;;;;;1.25;1.25;;;;;8.97;70.61;99289.25;5032470;27;45386;-64
2022/04/08 07:26:39;;;;;;;;;3.00;1.50;;;;;8.94;71.20;99270.91;5076510;28;45438;-58
2022/04/08 07:29:05;;;;;;;;;1.00;1.00;;;;;8.96;70.05;99271.66;4989656;27;45873;-58
2022/04/08 07:31:30;;;;;;;;;5.75;1.00;;;;;8.91;71.74;99271.13;4956459;28;46025;-59
2022/04/08 07:33:56;;;;;;;;;2.00;2.00;;;;;8.88;71.39;99260.75;4973264;28;46075;-58
2022/04/08 07:36:21;;;;;;;;;3.00;1.50;;;;;8.84;72.86;99239.72;4953955;28;45462;-58
2022/04/08 07:38:47;;;;;;;;;6.00;4.00;;;;;8.93;74.24;99240.91;4985396;28;45466;-58
2022/04/08 07:41:12;;;;;;;;;3.50;3.00;;;;;8.96;74.24;99243.31;4975033;28;45373;-56
2022/04/08 07:43:38;;;;;;;;;6.50;3.00;;;;;8.95;74.02;99230.19;4978087;28;45376;-59
2022/04/08 07:46:03;;;;;;;;;3.00;3.00;;;;;8.76;73.10;99202.34;4959723;28;45375;-57
2022/04/08 07:48:31;;;;;;;;;2.25;1.75;;;;;8.70;72.96;99184.19;4959001;28;45401;-58
2022/04/08 07:50:56;;;;;;;;;2.25;2.25;;;;;8.75;73.59;99186.53;4972396;27;45591;-57
2022/04/08 07:53:22;;;;;;;;;2.50;2.00;;;;;8.78;73.45;99181.88;4956388;28;48413;-58
2022/04/08 07:55:47;;;;;;;;;1.25;1.25;;;;;8.74;73.30;99180.41;4974644;28;45572;-61
2022/04/08 07:58:13;;;;;;;;;1.75;1.75;;;;;8.68;72.17;99191.41;4981016;28;45236;-57
2022/04/08 08:00:38;;;;;;;;;0.50;0.50;;;;;8.65;72.19;99170.44;4974089;28;45370;-60
2022/04/08 08:03:04;;;;;;;;;0.25;0.25;;;;;8.62;72.37;99159.22;4975005;28;45347;-59
2022/04/08 08:05:31;;;;;;;;;0.00;0.00;;;;;8.55;72.37;99153.47;4975244;28;45457;-59
2022/04/08 08:07:58;;;;;;;;;1.75;1.75;;;;;8.50;72.14;99147.69;4974633;28;45354;-59
2022/04/08 08:10:27;;;;;;;;;2.00;1.00;;;;;8.48;72.61;99136.34;4975807;28;45632;-59
2022/04/08 08:12:54;;;;;;;;;1.75;1.25;;;;;8.54;73.27;99150.00;4997748;28;46254;-58
2022/04/08 08:15:21;;;;;;;;;3.00;3.00;;;;;8.53;73.64;99139.50;5077760;27;45471;-59
2022/04/08 08:17:48;;;;;;;;;2.50;1.00;;;;;8.42;73.67;99120.84;5093388;27;45368;-58
2022/04/08 08:20:16;;;;;;;;;4.50;2.00;;;;;8.28;74.71;99114.69;5076928;27;45452;-59
2022/04/08 08:22:43;;;;;;;;;2.00;2.00;;;;;8.36;75.88;99137.19;5076864;27;45489;-58
2022/04/08 08:25:10;;;;;;;;;1.75;1.75;;;;;8.34;74.27;99110.81;5032147;27;45453;-59
2022/04/08 08:27:41;;;;;;;;;1.00;1.00;;;;;8.35;75.21;99114.31;4974956;28;45342;-62
2022/04/08 08:30:10;;;;;;;;;2.75;2.00;;;;;8.25;75.08;99116.72;4974837;28;45604;-59
2022/04/08 08:32:36;;;;;;;;;5.00;2.25;;;;;8.35;74.95;99119.63;4974582;28;46163;-59
2022/04/08 08:35:02;;;;;;;;;1.00;1.00;;;;;8.26;73.36;99100.72;4974267;28;45449;-61
2022/04/08 08:37:27;;;;;;;;;2.75;2.75;;;;;8.17;73.00;99093.41;4972899;28;45489;-58
2022/04/08 08:39:55;;;;;;;;;1.00;1.00;;;;;8.06;72.24;99061.53;4973027;28;45588;-60
2022/04/08 08:42:23;;;;;;;;;2.00;2.00;;;;;8.19;73.69;99088.00;4973923;28;45376;-59
2022/04/08 08:44:48;;;;;;;;;6.75;6.75;;;;;8.21;73.59;99097.56;4973640;27;45218;-59
2022/04/08 08:47:17;;;;;;;;;6.00;3.50;;;;;8.20;75.70;99087.03;4974108;28;45644;-57
2022/04/08 08:49:48;;;;;;;;;5.25;4.75;;;;;8.19;75.45;99083.56;4974264;28;45306;-60
2022/04/08 08:52:14;;;;;;;;;2.75;1.25;;;;;8.18;74.37;99076.56;4973946;28;45465;-59
2022/04/08 08:54:40;;;;;;;;;2.75;1.00;;;;;8.05;74.86;99070.44;4973893;28;45501;-58
2022/04/08 08:57:08;;;;;;;;;4.75;1.00;;;;;8.00;74.69;99046.09;4973798;28;45393;-59
2022/04/08 08:59:33;;;;;;;;;1.75;1.75;;;;;7.89;75.94;99030.13;4973877;28;45484;-59
2022/04/08 09:02:00;;;;;;;;;5.50;3.25;;;;;7.96;76.94;99044.63;4973215;27;45389;-60
2022/04/08 09:04:26;;;;;;;;;1.00;1.00;;;;;7.83;77.64;99018.16;4988732;27;45369;-58
2022/04/08 09:06:51;;;;;;;;;3.50;1.25;;;;;7.86;77.39;99007.34;4973018;28;45245;-57
2022/04/08 09:09:28;;;;;;;;;10.00;8.75;;;;;7.69;76.79;98974.16;4973124;28;45587;-58
2022/04/08 09:11:54;;;;;;;;;2.50;2.00;;;;;7.73;78.71;98997.75;4975088;28;47205;-59
2022/04/08 09:14:30;;;;;;;;;3.25;3.25;;;;;7.74;78.98;99010.84;5057934;28;45339;-60
2022/04/08 09:17:01;;;;;;;;;2.75;2.25;;;;;7.79;81.43;99015.81;5078397;27;45425;-59
2022/04/08 09:19:32;;;;;;;;;8.25;5.75;;;;;7.69;80.30;98976.78;5078893;28;45354;-59
2022/04/08 09:21:57;;;;;;;;;4.50;3.75;;;;;7.69;80.31;98973.31;5079545;27;45365;-60
2022/04/08 09:24:27;;;;;;;;;4.00;2.25;;;;;7.62;81.16;98966.72;5078727;28;45439;-59
2022/04/08 09:26:57;;;;;;;;;2.00;2.00;;;;;7.60;82.05;98974.78;5077352;28;45347;-59
2022/04/08 09:29:23;;;;;;;;;12.25;8.75;;;;;7.56;83.21;98986.53;5077023;28;45551;-60
2022/04/08 09:31:52;;;;;;;;;6.00;4.25;;;;;7.61;82.86;98986.19;5081273;27;45437;-61
2022/04/08 09:34:20;;;;;;;;;2.50;2.00;;;;;7.63;82.24;98995.72;5079216;27;45873;-59
2022/04/08 09:36:45;;;;;;;;;4.00;4.00;;;;;7.48;84.18;98990.66;5078825;28;45448;-58
2022/04/08 09:39:11;;;;;;;;;4.25;3.75;;;;;7.43;87.33;99001.56;5080345;27;45483;-59
2022/04/08 09:41:42;;;;;;;;;3.00;2.00;;;;;7.28;88.56;98995.47;5079913;27;45415;-59
2022/04/08 09:44:09;;;;;;;;;2.50;2.00;;;;;7.27;90.61;99003.53;5064464;27;45428;-59
2022/04/08 09:46:36;;;;;;;;;2.00;2.00;;;;;7.28;90.33;99034.31;5080085;27;45471;-60
2022/04/08 09:49:04;;;;;;;;;4.25;4.25;;;;;7.22;89.66;99053.25;5080551;27;45410;-58
2022/04/08 09:51:37;;;;;;;;;2.00;2.00;;;;;7.17;87.57;99021.84;5078700;27;46161;-59
2022/04/08 09:54:05;;;;;;;;;4.00;1.50;;;;;7.16;86.55;99003.41;5080022;27;45414;-59
2022/04/08 09:56:31;;;;;;;;;4.00;4.00;;;;;7.04;85.50;98961.00;5095906;27;45358;-60
2022/04/08 09:59:15;;;;;;;;;3.50;3.50;;;;;7.13;85.02;98975.38;5079955;27;45563;-58
2022/04/08 10:01:44;;;;;;;;;4.00;4.00;;;;;7.10;83.92;98997.59;5078929;27;45512;-59
2022/04/08 10:04:11;;;;;;;;;5.00;4.50;;;;;7.06;84.57;99011.97;5077412;27;45472;-59
2022/04/08 10:06:41;;;;;;;;;4.00;4.00;;;;;7.12;84.12;99015.13;5078498;27;45389;-58
2022/04/08 10:09:10;;;;;;;;;4.25;4.25;;;;;7.07;83.10;99055.97;5079337;27;45623;-58
2022/04/08 10:12:03;;;;;;;;;7.50;7.50;;;;;7.16;83.54;99043.06;5078832;27;46157;-59
2022/04/08 10:14:57;;;;;;;;;6.00;6.00;;;;;7.12;84.32;99031.00;4988855;27;45441;-59
2022/04/08 10:17:22;;;;;;;;;8.50;5.50;;;;;7.09;85.52;99011.75;4974726;28;45197;-59
2022/04/08 10:19:48;;;;;;;;;5.25;5.00;;;;;7.08;85.63;99004.78;4976468;28;45704;-60
2022/04/08 10:22:16;;;;;;;;;8.00;5.25;;;;;7.05;85.00;98994.41;4974703;28;45440;-58
2022/04/08 10:24:52;;;;;;;;;7.50;7.50;;;;;7.04;86.81;98983.94;4974307;28;45529;-59
2022/04/08 10:27:28;;;;;;;;;4.00;4.00;;;;;7.05;87.87;98983.00;4975329;28;45476;-60
2022/04/08 10:29:55;;;;;;;;;4.50;4.00;;;;;6.96;88.89;98965.94;4974229;27;45467;-60
2022/04/08 10:32:21;;;;;;;;;3.50;3.50;;;;;6.95;88.76;98964.25;4975417;28;45641;-58
2022/04/08 10:34:46;;;;;;;;;2.50;1.00;;;;;6.85;89.38;98946.47;4975909;28;45363;-58
2022/04/08 10:37:21;;;;;;;;;4.50;2.00;;;;;6.76;89.57;98893.28;4975881;28;45362;-59
2022/04/08 10:39:57;;;;;;;;;5.75;5.00;;;;;6.80;90.90;98872.81;4974870;28;45597;-59
2022/04/08 10:42:23;;;;;;;;;7.50;7.50;;;;;6.77;92.00;98855.38;4974146;28;45219;-59
2022/04/08 10:44:49;;;;;;;;;17.75;13.00;;;;;6.78;90.75;98869.44;4975397;27;45362;-58
2022/04/08 10:47:21;;;;;;;;;8.75;8.75;;;;;6.80;92.20;98883.38;4974453;28;46059;-59
2022/04/08 10:49:54;;;;;;;;;6.00;4.00;;;;;6.85;91.16;98881.25;4958645;28;45658;-59
2022/04/08 10:52:25;;;;;;;;;3.00;3.00;;;;;6.84;91.29;98884.84;4975615;28;46233;-59
2022/04/08 10:55:03;;;;;;;;;4.25;4.25;;;;;6.92;90.43;98914.25;4975176;28;45488;-57
2022/04/08 10:57:38;;;;;;;;;7.50;7.50;;;;;6.84;89.97;98906.00;4975275;28;45452;-60
2022/04/08 11:00:08;;;;;;;;;5.00;5.00;;;;;6.84;89.39;98889.28;4975540;28;45370;-58
2022/04/08 11:02:38;;;;;;;;;7.25;7.25;;;;;6.77;88.66;98793.72;4975460;28;45291;-62
2022/04/08 11:05:12;;;;;;;;;4.25;4.25;;;;;6.73;90.59;98908.50;4975414;28;45376;-58
2022/04/08 11:07:42;;;;;;;;;5.25;4.00;;;;;6.69;88.55;98859.47;4975357;28;45403;-59
2022/04/08 11:10:17;;;;;;;;;4.00;4.00;;;;;6.68;89.17;98910.63;4976860;28;45254;-59
2022/04/08 11:12:44;;;;;;;;;4.00;4.00;;;;;6.77;89.57;98888.84;4975991;27;45312;-58
2022/04/08 11:15:18;;;;;;;;;10.00;8.00;;;;;6.81;89.28;98900.91;4975648;27;45478;-58
2022/04/08 11:17:46;;;;;;;;;5.00;5.00;;;;;6.81;90.88;98874.50;4975778;28;45612;-58
2022/04/08 11:20:18;;;;;;;;;5.50;5.50;;;;;6.96;91.64;98881.38;4974495;28;45530;-59
2022/04/08 11:22:45;;;;;;;;;11.50;8.00;;;;;6.97;91.53;98895.44;4975417;28;46083;-57
2022/04/08 11:25:28;;;;;;;;;5.25;4.50;;;;;6.98;91.43;98889.19;4974827;28;45752;-58
2022/04/08 11:28:03;;;;;;;;;6.50;5.00;;;;;7.03;91.31;98865.94;4975220;28;45260;-59
2022/04/08 11:30:30;;;;;;;;;21.25;20.25;;;;;7.13;91.41;98851.13;4973737;28;45386;-59
2022/04/08 11:32:56;;;;;;;;;6.00;6.00;;;;;7.12;89.59;98848.59;4974621;28;45441;-59
2022/04/08 11:35:22;;;;;;;;;9.25;5.75;;;;;7.22;88.63;98873.44;4990421;28;45382;-59
2022/04/08 11:37:47;;;;;;;;;4.50;4.50;;;;;7.31;86.56;98883.41;5077781;27;45346;-58